Mullinville, Kansas
Current Conditions -  °F | °C
As of 9:52 AM on Monday 26 Jan 2015 (Local Time) from KDDC Reporting Station
Clear Clear  
Wind Chill: 11°   Ceiling: Unl
Heat Index: 11°   Visibility: 10mi
Dew Point: -1°   Wind: 16mph
Humidity: 43%   Direction: 300°WNW
Pressure: 30.12"   Gusts: NA
Location:  37.59°N, 99.48°W
Report Text: KDDC 261552Z AUTO 30014KT 10SM CLR 11/M01 A3012 RMK AO2 SLP204 T01111011
Loading
Personal Weather Stations






























Interactive Weather Map New forecast layout! Learn more

10-Day Weather Forecast

Advertisements
Track Severe Weather on mobile